createdAt,value
2022-09-28T00:00:18.381Z,8.50
2022-09-28T00:02:47.007Z,8.40
2022-09-28T00:05:16.050Z,8.50
2022-09-28T00:07:44.881Z,8.60
2022-09-28T00:10:13.452Z,8.60
2022-09-28T00:12:43.455Z,8.60
2022-09-28T00:15:12.587Z,8.70
2022-09-28T00:17:41.274Z,8.70
2022-09-28T00:20:11.457Z,8.60
2022-09-28T00:22:40.282Z,8.50
2022-09-28T00:25:10.461Z,8.50
2022-09-28T00:27:39.083Z,8.30
2022-09-28T00:30:11.377Z,8.40
2022-09-28T00:32:39.987Z,8.50
2022-09-28T00:35:09.742Z,8.50
2022-09-28T00:37:38.601Z,8.50
2022-09-28T00:40:08.684Z,8.50
2022-09-28T00:42:37.328Z,8.50
2022-09-28T00:45:10.181Z,8.50
2022-09-28T00:47:51.618Z,8.50
2022-09-28T00:50:28.171Z,8.50
2022-09-28T00:53:03.464Z,8.50
2022-09-28T00:55:40.786Z,8.40
2022-09-28T00:58:14.269Z,8.40
2022-09-28T01:00:44.501Z,8.40
2022-09-28T01:03:14.704Z,8.40
2022-09-28T01:05:44.646Z,8.40
2022-09-28T01:08:15.626Z,8.30
2022-09-28T01:10:44.731Z,8.30
2022-09-28T01:13:15.999Z,8.40
2022-09-28T01:15:59.566Z,8.40
2022-09-28T01:18:42.075Z,8.40
2022-09-28T01:21:18.009Z,8.20
2022-09-28T01:24:15.477Z,8.10
2022-09-28T01:27:06.253Z,8.20
2022-09-28T01:29:49.311Z,8.30
2022-09-28T01:32:33.823Z,8.30
2022-09-28T01:35:09.281Z,8.30
2022-09-28T01:37:48.189Z,8.20
2022-09-28T01:40:19.816Z,8.20
2022-09-28T01:42:58.215Z,8.30
2022-09-28T01:45:34.401Z,8.30
2022-09-28T01:48:08.466Z,8.30
2022-09-28T01:50:42.316Z,8.30
2022-09-28T01:53:21.798Z,8.30
2022-09-28T01:55:56.113Z,8.30
2022-09-28T01:58:33.926Z,8.30
2022-09-28T02:01:11.795Z,8.30
2022-09-28T02:03:49.869Z,8.20
2022-09-28T02:06:24.196Z,8.20
2022-09-28T02:09:15.114Z,8.20
2022-09-28T02:11:54.016Z,8.30
2022-09-28T02:14:27.374Z,8.30
2022-09-28T02:16:58.293Z,8.30
2022-09-28T02:19:32.866Z,8.30
2022-09-28T02:22:14.606Z,8.30
2022-09-28T02:24:55.142Z,8.30
2022-09-28T02:27:37.668Z,8.30
2022-09-28T02:30:09.982Z,8.20
2022-09-28T02:32:46.233Z,8.20
2022-09-28T02:35:19.126Z,8.30
2022-09-28T02:37:48.771Z,8.30
2022-09-28T02:40:21.978Z,8.30
2022-09-28T02:43:10.582Z,8.30
2022-09-28T02:46:13.647Z,8.20
2022-09-28T02:49:21.403Z,8.10
2022-09-28T02:52:26.754Z,8.10
2022-09-28T02:55:21.402Z,8.10
2022-09-28T02:58:12.390Z,8.00
2022-09-28T03:00:52.741Z,8.00
2022-09-28T03:03:34.154Z,8.00
2022-09-28T03:06:13.040Z,8.00
2022-09-28T03:08:56.672Z,8.10
2022-09-28T03:11:34.760Z,8.00
2022-09-28T03:14:05.875Z,8.00
2022-09-28T03:16:49.505Z,7.90
2022-09-28T03:19:23.945Z,7.80
2022-09-28T03:21:54.409Z,7.90
2022-09-28T03:24:23.037Z,7.90
2022-09-28T03:26:52.053Z,7.90
2022-09-28T03:29:21.113Z,7.80
2022-09-28T03:31:56.505Z,7.70
2022-09-28T03:34:25.258Z,7.70
2022-09-28T03:36:54.974Z,7.80
2022-09-28T03:39:23.657Z,7.80
2022-09-28T03:41:54.310Z,7.90
2022-09-28T03:44:27.592Z,7.90
2022-09-28T03:47:08.348Z,7.90
2022-09-28T03:49:39.426Z,7.90
2022-09-28T03:52:08.140Z,7.90
2022-09-28T03:54:37.293Z,8.00
2022-09-28T03:57:08.796Z,7.90
2022-09-28T03:59:38.008Z,8.00
2022-09-28T04:02:10.114Z,8.00
2022-09-28T04:04:38.856Z,8.00
2022-09-28T04:07:11.123Z,8.00
2022-09-28T04:09:39.822Z,8.00
2022-09-28T04:12:09.099Z,7.90
2022-09-28T04:14:37.872Z,7.90
2022-09-28T04:17:14.087Z,7.90
2022-09-28T04:19:44.982Z,7.90
2022-09-28T04:22:37.713Z,8.00
2022-09-28T04:25:12.905Z,7.90
2022-09-28T04:28:04.533Z,7.90
2022-09-28T04:30:33.540Z,7.90
2022-09-28T04:33:06.650Z,7.80
2022-09-28T04:35:35.299Z,7.90
2022-09-28T04:38:09.990Z,7.90
2022-09-28T04:40:39.895Z,7.90
2022-09-28T04:43:10.948Z,7.90
2022-09-28T04:45:39.643Z,7.80
2022-09-28T04:48:13.993Z,7.70
2022-09-28T04:51:02.114Z,7.70
2022-09-28T04:53:31.961Z,7.80
2022-09-28T04:56:03.331Z,7.80
2022-09-28T04:58:32.985Z,7.80
2022-09-28T05:01:05.347Z,7.70
2022-09-28T05:04:10.649Z,7.80
2022-09-28T05:06:59.515Z,7.80
2022-09-28T05:09:29.602Z,7.70
2022-09-28T05:11:58.389Z,7.80
2022-09-28T05:14:27.555Z,7.80
2022-09-28T05:16:56.620Z,7.70
2022-09-28T05:19:30.335Z,7.80
2022-09-28T05:22:06.255Z,7.90
2022-09-28T05:24:41.560Z,7.80
2022-09-28T05:27:10.940Z,7.80
2022-09-28T05:29:39.739Z,7.80
2022-09-28T05:32:26.618Z,7.80
2022-09-28T05:35:15.399Z,7.80
2022-09-28T05:37:48.125Z,7.80
2022-09-28T05:40:17.746Z,7.90
2022-09-28T05:42:46.405Z,7.90
2022-09-28T05:45:15.319Z,7.90
2022-09-28T05:47:47.012Z,7.80
2022-09-28T05:50:21.183Z,7.80
2022-09-28T05:53:00.215Z,7.80
2022-09-28T05:55:29.281Z,7.80
2022-09-28T05:58:00.716Z,7.90
2022-09-28T06:00:30.192Z,7.90
2022-09-28T06:03:03.421Z,7.90
2022-09-28T06:05:39.413Z,7.90
2022-09-28T06:08:10.824Z,8.00
2022-09-28T06:10:43.919Z,7.90
2022-09-28T06:13:12.910Z,7.90
2022-09-28T06:15:44.958Z,7.90
2022-09-28T06:18:16.055Z,7.90
2022-09-28T06:21:05.996Z,7.90
2022-09-28T06:23:46.859Z,7.90
2022-09-28T06:26:18.494Z,8.00
2022-09-28T06:28:47.700Z,8.00
2022-09-28T06:31:16.443Z,8.00
2022-09-28T06:33:50.309Z,8.00
2022-09-28T06:36:22.279Z,8.00
2022-09-28T06:38:51.694Z,8.00
2022-09-28T06:41:20.362Z,8.00
2022-09-28T06:43:49.740Z,8.00
2022-09-28T06:46:39.317Z,8.00
2022-09-28T06:49:30.327Z,8.10
2022-09-28T06:52:18.821Z,8.10
2022-09-28T06:55:10.895Z,8.10
2022-09-28T06:57:48.117Z,8.10
2022-09-28T07:00:17.787Z,8.10
2022-09-28T07:02:48.507Z,8.20
2022-09-28T07:05:38.230Z,8.20
2022-09-28T07:08:26.615Z,8.20
2022-09-28T07:11:27.035Z,8.20
2022-09-28T07:14:46.515Z,8.20
2022-09-28T07:17:17.132Z,8.20
2022-09-28T07:19:45.801Z,8.20
2022-09-28T07:22:18.586Z,8.30
2022-09-28T07:24:50.180Z,8.30
2022-09-28T07:27:38.283Z,8.30
2022-09-28T07:30:18.616Z,8.20
2022-09-28T07:33:14.651Z,8.30
2022-09-28T07:35:57.063Z,8.30
2022-09-28T07:38:29.891Z,8.30
2022-09-28T07:41:11.472Z,8.30
2022-09-28T07:43:45.142Z,8.40
2022-09-28T07:46:13.865Z,8.50
2022-09-28T07:48:51.838Z,8.40
2022-09-28T07:51:35.907Z,8.40
2022-09-28T07:54:31.745Z,8.50
2022-09-28T07:57:33.286Z,8.50
2022-09-28T08:00:34.524Z,8.50
2022-09-28T08:03:04.853Z,8.60
2022-09-28T08:05:35.953Z,8.60
2022-09-28T08:08:04.893Z,8.60
2022-09-28T08:10:35.186Z,8.60
2022-09-28T08:13:23.559Z,8.60
2022-09-28T08:16:19.126Z,8.70
2022-09-28T08:19:01.951Z,8.70
2022-09-28T08:21:48.298Z,8.70
2022-09-28T08:24:19.307Z,8.70
2022-09-28T08:26:49.552Z,8.70
2022-09-28T08:29:20.971Z,8.70
2022-09-28T08:31:52.247Z,8.70
2022-09-28T08:34:37.361Z,8.70
2022-09-28T08:37:24.853Z,8.70
2022-09-28T08:40:20.371Z,8.70
2022-09-28T08:43:40.980Z,8.70
2022-09-28T08:46:38.720Z,8.70
2022-09-28T08:49:36.558Z,8.70
2022-09-28T08:52:31.314Z,8.70
2022-09-28T08:55:40.925Z,8.70
2022-09-28T08:58:15.453Z,8.70
2022-09-28T09:00:49.453Z,8.70
2022-09-28T09:03:29.007Z,8.70
2022-09-28T09:06:32.170Z,8.70
2022-09-28T09:09:23.649Z,8.70
2022-09-28T09:12:05.010Z,8.80
2022-09-28T09:15:18.461Z,8.70
2022-09-28T09:18:05.148Z,8.70
2022-09-28T09:20:53.230Z,8.70
2022-09-28T09:23:39.521Z,8.80
2022-09-28T09:26:23.505Z,8.80
2022-09-28T09:29:30.497Z,8.80
2022-09-28T09:32:24.821Z,8.90
2022-09-28T09:35:26.143Z,8.90
2022-09-28T09:39:00.320Z,8.90
2022-09-28T09:42:27.050Z,8.90
2022-09-28T09:45:55.667Z,8.90
2022-09-28T09:49:09.496Z,9.00
2022-09-28T09:51:49.000Z,9.00
2022-09-28T09:54:28.194Z,8.90
2022-09-28T09:57:07.838Z,8.80
2022-09-28T09:59:58.247Z,8.90
2022-09-28T10:02:47.087Z,9.00
2022-09-28T10:05:33.655Z,9.00
2022-09-28T10:08:12.565Z,9.10
2022-09-28T10:10:52.815Z,9.10
2022-09-28T10:13:23.348Z,9.10
2022-09-28T10:15:56.451Z,9.10
2022-09-28T10:18:49.943Z,9.10
2022-09-28T10:21:40.736Z,9.00
2022-09-28T10:24:35.608Z,9.10
2022-09-28T10:27:16.431Z,9.00
2022-09-28T10:29:53.735Z,9.10
2022-09-28T10:32:25.838Z,9.10
2022-09-28T10:35:26.224Z,9.20
2022-09-28T10:38:05.121Z,9.30
2022-09-28T10:41:01.165Z,9.30
2022-09-28T10:44:06.120Z,9.40
2022-09-28T10:46:59.923Z,9.40
2022-09-28T10:49:45.890Z,9.40
2022-09-28T10:52:39.805Z,9.50
2022-09-28T10:55:30.750Z,9.50
2022-09-28T10:57:59.712Z,9.50
2022-09-28T11:00:44.353Z,9.60
2022-09-28T11:03:29.063Z,9.50
2022-09-28T11:06:06.741Z,9.50
2022-09-28T11:08:40.810Z,9.40
2022-09-28T11:11:14.350Z,9.40
2022-09-28T11:13:49.160Z,9.50
2022-09-28T11:16:29.896Z,9.50
2022-09-28T11:19:05.231Z,9.70
2022-09-28T11:21:46.124Z,9.80
2022-09-28T11:24:26.127Z,10.00
2022-09-28T11:27:00.405Z,10.10
2022-09-28T11:29:39.961Z,10.10
2022-09-28T11:32:43.752Z,10.20
2022-09-28T11:35:26.647Z,10.30
2022-09-28T11:38:17.321Z,10.20
2022-09-28T11:41:26.209Z,10.20
2022-09-28T11:44:22.643Z,10.20
2022-09-28T11:47:26.825Z,10.00
2022-09-28T11:50:06.601Z,10.10
2022-09-28T11:52:48.375Z,10.10
2022-09-28T11:55:29.086Z,10.20
2022-09-28T11:58:10.235Z,10.30
2022-09-28T12:00:46.561Z,10.40
2022-09-28T12:03:22.866Z,10.50
2022-09-28T12:06:01.013Z,10.40
2022-09-28T12:08:37.433Z,10.60
2022-09-28T12:11:14.221Z,10.60
2022-09-28T12:14:06.818Z,10.70
2022-09-28T12:17:04.986Z,10.70
2022-09-28T12:19:39.998Z,10.60
2022-09-28T12:22:24.217Z,10.40
2022-09-28T12:24:59.020Z,10.30
2022-09-28T12:27:38.939Z,10.20
2022-09-28T12:30:20.924Z,10.30
2022-09-28T12:32:57.381Z,10.40
2022-09-28T12:35:41.958Z,10.50
2022-09-28T12:38:40.107Z,10.50
2022-09-28T12:41:24.992Z,10.50
2022-09-28T12:44:17.388Z,10.50
2022-09-28T12:47:25.839Z,10.30
2022-09-28T12:50:38.194Z,10.20
2022-09-28T12:53:31.221Z,10.20
2022-09-28T12:56:06.408Z,10.30
2022-09-28T12:59:01.116Z,10.40
2022-09-28T13:01:55.437Z,10.30
2022-09-28T13:05:03.611Z,10.30
2022-09-28T13:07:47.668Z,10.30
2022-09-28T13:10:32.540Z,10.40
2022-09-28T13:13:31.684Z,10.40
2022-09-28T13:16:17.609Z,10.40
2022-09-28T13:19:00.165Z,10.50
2022-09-28T13:21:44.184Z,10.50
2022-09-28T13:24:33.511Z,10.50
2022-09-28T13:27:15.177Z,10.50
2022-09-28T13:29:50.588Z,10.60
2022-09-28T13:32:20.919Z,10.50
2022-09-28T13:34:52.338Z,10.60
2022-09-28T13:37:25.816Z,10.70
2022-09-28T13:40:01.121Z,10.70
2022-09-28T13:43:20.840Z,10.70
2022-09-28T13:46:04.881Z,10.80
2022-09-28T13:48:52.984Z,10.80
2022-09-28T13:51:39.168Z,10.80
2022-09-28T13:54:29.527Z,10.80
2022-09-28T13:57:18.164Z,10.80
2022-09-28T14:00:03.722Z,10.80
2022-09-28T14:02:49.752Z,10.80
2022-09-28T14:05:54.555Z,10.70
2022-09-28T14:08:38.475Z,10.70
2022-09-28T14:11:56.314Z,10.70
2022-09-28T14:14:48.570Z,10.70
2022-09-28T14:18:02.170Z,10.70
2022-09-28T14:20:32.753Z,10.60
2022-09-28T14:23:59.004Z,10.70
2022-09-28T14:27:04.432Z,10.40
2022-09-28T14:29:38.282Z,10.50
2022-09-28T14:32:24.624Z,10.40
2022-09-28T14:35:07.139Z,10.50
2022-09-28T14:37:58.472Z,10.60
2022-09-28T14:40:50.258Z,10.70
2022-09-28T14:43:35.903Z,10.70
2022-09-28T14:46:37.917Z,10.60
2022-09-28T14:49:37.577Z,10.70
2022-09-28T14:52:14.776Z,10.60
2022-09-28T14:54:54.998Z,10.60
2022-09-28T14:57:36.174Z,10.50
2022-09-28T15:00:18.659Z,10.60
2022-09-28T15:02:52.807Z,10.40
2022-09-28T15:05:28.984Z,10.40
2022-09-28T15:07:59.831Z,10.40
2022-09-28T15:10:34.234Z,10.30
2022-09-28T15:13:16.908Z,10.20
2022-09-28T15:15:51.472Z,10.30
2022-09-28T15:19:15.762Z,10.20
2022-09-28T15:21:47.630Z,10.30
2022-09-28T15:24:30.724Z,10.30
2022-09-28T15:27:00.219Z,10.30
2022-09-28T15:29:31.785Z,10.20
2022-09-28T15:32:02.589Z,10.30
2022-09-28T15:34:51.596Z,10.30
2022-09-28T15:37:24.963Z,10.40
2022-09-28T15:39:57.921Z,10.30
2022-09-28T15:42:27.012Z,10.40
2022-09-28T15:45:22.265Z,10.30
2022-09-28T15:47:56.175Z,10.30
2022-09-28T15:50:28.811Z,10.40
2022-09-28T15:53:01.973Z,10.40
2022-09-28T15:55:34.739Z,10.40
2022-09-28T15:58:17.210Z,10.30
2022-09-28T16:00:48.064Z,10.40
2022-09-28T16:03:31.217Z,10.40
2022-09-28T16:06:11.524Z,10.40
2022-09-28T16:08:43.368Z,10.40
2022-09-28T16:11:23.971Z,10.40
2022-09-28T16:14:06.824Z,10.40
2022-09-28T16:16:43.318Z,10.20
2022-09-28T16:19:26.143Z,10.30
2022-09-28T16:22:02.512Z,10.30
2022-09-28T16:24:36.621Z,10.40
2022-09-28T16:27:10.202Z,10.40
2022-09-28T16:29:42.071Z,10.30
2022-09-28T16:32:50.390Z,10.30
2022-09-28T16:35:28.723Z,10.30
2022-09-28T16:38:11.197Z,10.30
2022-09-28T16:40:46.326Z,10.30
2022-09-28T16:43:27.100Z,10.30
2022-09-28T16:45:58.167Z,10.20
2022-09-28T16:48:30.445Z,10.20
2022-09-28T16:50:59.827Z,10.20
2022-09-28T16:53:42.622Z,10.30
2022-09-28T16:56:13.419Z,10.30
2022-09-28T16:58:44.380Z,10.30
2022-09-28T17:01:14.957Z,10.30
2022-09-28T17:03:46.963Z,10.30
2022-09-28T17:06:16.919Z,10.20
2022-09-28T17:08:50.507Z,10.10
2022-09-28T17:11:24.552Z,10.10
2022-09-28T17:13:59.092Z,10.10
2022-09-28T17:17:02.291Z,10.10
2022-09-28T17:19:25.803Z,10.10
2022-09-28T17:21:54.861Z,10.20
2022-09-28T17:24:23.555Z,10.10
2022-09-28T17:26:53.508Z,10.10
2022-09-28T17:29:24.205Z,10.10
2022-09-28T17:31:53.055Z,10.10
2022-09-28T17:34:22.551Z,10.10
2022-09-28T17:36:52.903Z,10.10
2022-09-28T17:39:21.820Z,10.10
2022-09-28T17:41:51.139Z,10.10
2022-09-28T17:44:20.578Z,10.10
2022-09-28T17:46:54.714Z,10.00
2022-09-28T17:49:24.966Z,10.00
2022-09-28T17:51:54.415Z,10.00
2022-09-28T17:54:26.102Z,9.90
2022-09-28T17:57:00.085Z,9.80
2022-09-28T17:59:32.396Z,9.70
2022-09-28T18:02:03.012Z,9.80
2022-09-28T18:04:51.348Z,9.70
2022-09-28T18:07:21.044Z,9.80
2022-09-28T18:10:02.421Z,9.70
2022-09-28T18:12:31.623Z,9.70
2022-09-28T18:15:01.211Z,9.70
2022-09-28T18:17:31.812Z,9.50
2022-09-28T18:20:00.608Z,9.50
2022-09-28T18:22:30.205Z,9.40
2022-09-28T18:25:00.111Z,9.30
2022-09-28T18:27:31.470Z,9.40
2022-09-28T18:30:00.899Z,9.50
2022-09-28T18:32:31.610Z,9.30
2022-09-28T18:35:00.927Z,9.40
2022-09-28T18:37:30.187Z,9.30
2022-09-28T18:39:59.413Z,9.40
2022-09-28T18:42:28.205Z,9.30
2022-09-28T18:44:57.119Z,9.40
2022-09-28T18:47:28.255Z,9.30
2022-09-28T18:49:59.012Z,9.20
2022-09-28T18:52:28.576Z,9.20
2022-09-28T18:54:57.533Z,9.00
2022-09-28T18:57:29.029Z,9.00
2022-09-28T18:59:58.461Z,8.90
2022-09-28T19:02:27.658Z,8.90
2022-09-28T19:04:57.853Z,9.00
2022-09-28T19:07:27.300Z,8.90
2022-09-28T19:09:57.321Z,9.00
2022-09-28T19:12:26.467Z,9.00
2022-09-28T19:14:55.209Z,8.90
2022-09-28T19:17:24.864Z,8.80
2022-09-28T19:19:53.717Z,8.80
2022-09-28T19:22:23.856Z,8.80
2022-09-28T19:24:54.408Z,8.70
2022-09-28T19:27:23.625Z,8.70
2022-09-28T19:29:52.895Z,8.70
2022-09-28T19:32:21.614Z,8.70
2022-09-28T19:34:50.339Z,8.60
2022-09-28T19:37:35.720Z,8.60
2022-09-28T19:40:05.915Z,8.60
2022-09-28T19:42:36.413Z,8.60
2022-09-28T19:45:05.775Z,8.50
2022-09-28T19:47:34.454Z,8.50
2022-09-28T19:50:06.535Z,8.50
2022-09-28T19:52:37.048Z,8.30
2022-09-28T19:55:06.780Z,8.30
2022-09-28T19:57:36.231Z,8.30
2022-09-28T20:00:06.290Z,8.20
2022-09-28T20:02:35.632Z,8.10
2022-09-28T20:05:04.627Z,8.20
2022-09-28T20:07:34.872Z,8.20
2022-09-28T20:10:05.458Z,8.20
2022-09-28T20:12:34.733Z,8.20
2022-09-28T20:15:10.863Z,8.20
2022-09-28T20:17:39.903Z,8.00
2022-09-28T20:20:09.557Z,8.10
2022-09-28T20:22:40.341Z,8.20
2022-09-28T20:25:11.173Z,8.00
2022-09-28T20:27:39.957Z,7.90
2022-09-28T20:30:11.317Z,7.90
2022-09-28T20:32:40.329Z,7.90
2022-09-28T20:35:10.218Z,7.90
2022-09-28T20:37:38.866Z,7.90
2022-09-28T20:40:11.080Z,7.90
2022-09-28T20:42:42.147Z,7.80
2022-09-28T20:45:11.213Z,7.80
2022-09-28T20:47:40.507Z,7.80
2022-09-28T20:50:11.645Z,7.70
2022-09-28T20:52:40.316Z,7.70
2022-09-28T20:55:11.057Z,7.80
2022-09-28T20:57:39.631Z,7.90
2022-09-28T21:00:10.801Z,7.60
2022-09-28T21:02:39.494Z,7.60
2022-09-28T21:05:09.397Z,7.60
2022-09-28T21:07:42.354Z,7.70
2022-09-28T21:10:13.756Z,7.60
2022-09-28T21:12:42.638Z,7.70
2022-09-28T21:15:12.407Z,7.70
2022-09-28T21:17:41.060Z,7.60
2022-09-28T21:20:11.184Z,7.60
2022-09-28T21:22:39.878Z,7.70
2022-09-28T21:25:09.464Z,7.60
2022-09-28T21:27:39.473Z,7.60
2022-09-28T21:30:10.644Z,7.50
2022-09-28T21:32:39.218Z,7.40
2022-09-28T21:35:09.284Z,7.30
2022-09-28T21:37:38.054Z,7.40
2022-09-28T21:40:09.852Z,7.40
2022-09-28T21:42:40.040Z,7.40
2022-09-28T21:45:10.249Z,7.30
2022-09-28T21:47:39.905Z,7.40
2022-09-28T21:50:09.891Z,7.40
2022-09-28T21:52:39.554Z,7.30
2022-09-28T21:55:10.400Z,7.20
2022-09-28T21:57:40.495Z,7.30
2022-09-28T22:00:12.742Z,7.20
2022-09-28T22:02:42.044Z,7.20
2022-09-28T22:05:12.724Z,7.20
2022-09-28T22:07:42.848Z,7.30
2022-09-28T22:10:15.478Z,7.20
2022-09-28T22:12:45.561Z,7.20
2022-09-28T22:15:14.475Z,7.20
2022-09-28T22:17:43.119Z,7.20
2022-09-28T22:20:11.935Z,7.00
2022-09-28T22:22:40.565Z,7.00
2022-09-28T22:25:11.647Z,6.90
2022-09-28T22:27:40.380Z,6.90
2022-09-28T22:30:12.118Z,7.00
2022-09-28T22:32:40.814Z,7.00
2022-09-28T22:35:12.114Z,6.90
2022-09-28T22:38:04.805Z,6.90
2022-09-28T22:41:25.075Z,6.90
2022-09-28T22:44:22.399Z,7.00
2022-09-28T22:46:52.599Z,7.00
2022-09-28T22:49:21.672Z,7.00
2022-09-28T22:51:50.375Z,6.80
2022-09-28T22:54:19.168Z,6.80
2022-09-28T22:56:47.954Z,6.80
2022-09-28T22:59:16.937Z,6.80
2022-09-28T23:01:45.864Z,6.80
2022-09-28T23:04:16.169Z,6.80
2022-09-28T23:06:44.816Z,6.70
2022-09-28T23:09:13.419Z,6.60
2022-09-28T23:11:42.155Z,6.50
2022-09-28T23:14:13.657Z,6.50
2022-09-28T23:16:42.344Z,6.50
2022-09-28T23:19:11.159Z,6.60
2022-09-28T23:21:41.888Z,6.70
2022-09-28T23:24:12.410Z,6.70
2022-09-28T23:26:41.049Z,6.60
2022-09-28T23:29:13.009Z,6.60
2022-09-28T23:31:42.366Z,6.60
2022-09-28T23:34:12.212Z,6.60
2022-09-28T23:36:42.469Z,6.60
2022-09-28T23:39:12.170Z,6.70
2022-09-28T23:41:41.037Z,6.50
2022-09-28T23:44:09.632Z,6.60
2022-09-28T23:46:38.857Z,6.50
2022-09-28T23:49:08.095Z,6.50
2022-09-28T23:51:36.722Z,6.40
2022-09-28T23:54:07.133Z,6.40
2022-09-28T23:56:36.028Z,6.50
2022-09-28T23:59:05.357Z,6.20
